Main page
METAR-TAF:

METAR-TAF

Airports :

Lemnos International Airport

Lemnos, Greece

latitude: 39-55N, longitude: 025-14E, elevation: 5 m

Current weather observation

The report was made 11 minutes ago, at 10:20 UTC
Wind 11 kt from the North/Northeast
Temperature 30°C
Humidity 43%
Pressure 1006 hPa
Visibility 10 km or more
Few clouds at a height of 2000 ft

METAR: LGLM 181020Z 03011KT 9999 FEW020 30/16 Q1006

Time: 13:31 (10:31 UTC)

Forecast

The report was made 2 hours and 31 minutes ago, at 08:00 UTC
Forecast valid from 18 at 09 UTC to 18 at 18 UTC
Wind 10 kt from the Northeast
Visibility 10 km or more
Few clouds at a height of 2500 ft
Becoming
from 18 at 10 UTC to 18 at 12 UTC
Wind 10 kt from the North/Northwest

TAF: LGLM 180800Z 1809/1818 05010KT 9999 FEW025 BECMG 1810/1812 34010KT

Weather observations and forecasts of more than 4000 airports (METAR and TAF reports).

The available stations are represented by yellow and red dots on the map.

Hover mouse over dot to see the name of the station.

Then click to see weather observations and forecasts.

To change the map : click on the green buttons with a black cross to zoom in, on the green button with a dash to zoom out, or on the green arrows for adjacent maps.


METAR-TAF: